sensor_id;sensor_type;location;lat;lon;timestamp;P1;durP1;ratioP1;P2;durP2;ratioP2
10009;SDS011;5044;48.652;9.250;2023-03-31T00:01:27;2.70;;;0.75;;
10009;SDS011;5044;48.652;9.250;2023-03-31T00:03:58;3.28;;;1.17;;
10009;SDS011;5044;48.652;9.250;2023-03-31T00:06:28;4.28;;;1.30;;
10009;SDS011;5044;48.652;9.250;2023-03-31T00:08:56;5.25;;;1.00;;
10009;SDS011;5044;48.652;9.250;2023-03-31T00:11:26;5.68;;;1.38;;
10009;SDS011;5044;48.652;9.250;2023-03-31T00:13:53;8.43;;;1.35;;
10009;SDS011;5044;48.652;9.250;2023-03-31T00:16:20;4.45;;;1.50;;
10009;SDS011;5044;48.652;9.250;2023-03-31T00:18:48;2.22;;;1.13;;
10009;SDS011;5044;48.652;9.250;2023-03-31T00:21:16;3.30;;;1.27;;
10009;SDS011;5044;48.652;9.250;2023-03-31T00:23:59;6.22;;;1.10;;
10009;SDS011;5044;48.652;9.250;2023-03-31T00:26:27;2.20;;;0.95;;
10009;SDS011;5044;48.652;9.250;2023-03-31T00:28:54;2.83;;;0.82;;
10009;SDS011;5044;48.652;9.250;2023-03-31T00:31:23;2.38;;;0.90;;
10009;SDS011;5044;48.652;9.250;2023-03-31T00:33:52;4.18;;;0.85;;
10009;SDS011;5044;48.652;9.250;2023-03-31T00:36:20;6.88;;;1.20;;
10009;SDS011;5044;48.652;9.250;2023-03-31T00:38:51;4.40;;;1.10;;
10009;SDS011;5044;48.652;9.250;2023-03-31T00:41:18;4.25;;;0.98;;
10009;SDS011;5044;48.652;9.250;2023-03-31T00:46:32;4.85;;;1.10;;
10009;SDS011;5044;48.652;9.250;2023-03-31T00:49:05;6.65;;;1.08;;
10009;SDS011;5044;48.652;9.250;2023-03-31T00:51:45;4.22;;;1.45;;
10009;SDS011;5044;48.652;9.250;2023-03-31T00:54:13;7.20;;;1.45;;
10009;SDS011;5044;48.652;9.250;2023-03-31T00:56:43;4.43;;;1.40;;
10009;SDS011;5044;48.652;9.250;2023-03-31T00:59:13;6.35;;;1.25;;
10009;SDS011;5044;48.652;9.250;2023-03-31T01:01:42;3.35;;;1.00;;
10009;SDS011;5044;48.652;9.250;2023-03-31T01:04:16;2.85;;;1.02;;
10009;SDS011;5044;48.652;9.250;2023-03-31T01:06:49;3.63;;;1.23;;
10009;SDS011;5044;48.652;9.250;2023-03-31T01:09:25;4.85;;;1.00;;
10009;SDS011;5044;48.652;9.250;2023-03-31T01:11:59;4.82;;;1.17;;
10009;SDS011;5044;48.652;9.250;2023-03-31T01:14:28;3.70;;;1.40;;
10009;SDS011;5044;48.652;9.250;2023-03-31T01:16:56;6.65;;;1.35;;
10009;SDS011;5044;48.652;9.250;2023-03-31T01:19:26;2.60;;;1.00;;
10009;SDS011;5044;48.652;9.250;2023-03-31T01:25:23;4.47;;;1.95;;
10009;SDS011;5044;48.652;9.250;2023-03-31T01:28:21;1.40;;;0.70;;
10009;SDS011;5044;48.652;9.250;2023-03-31T01:33:59;4.82;;;1.15;;
10009;SDS011;5044;48.652;9.250;2023-03-31T01:37:00;5.05;;;1.30;;
10009;SDS011;5044;48.652;9.250;2023-03-31T01:42:49;5.97;;;1.30;;
10009;SDS011;5044;48.652;9.250;2023-03-31T01:45:25;3.38;;;1.00;;
10009;SDS011;5044;48.652;9.250;2023-03-31T01:47:58;2.50;;;1.27;;
10009;SDS011;5044;48.652;9.250;2023-03-31T01:50:32;2.95;;;1.15;;
10009;SDS011;5044;48.652;9.250;2023-03-31T01:53:04;3.03;;;1.10;;
10009;SDS011;5044;48.652;9.250;2023-03-31T01:55:40;5.38;;;1.38;;
10009;SDS011;5044;48.652;9.250;2023-03-31T01:58:11;3.65;;;1.48;;
10009;SDS011;5044;48.652;9.250;2023-03-31T02:00:44;3.22;;;1.75;;
10009;SDS011;5044;48.652;9.250;2023-03-31T02:03:16;6.72;;;1.60;;
10009;SDS011;5044;48.652;9.250;2023-03-31T02:05:49;4.45;;;1.52;;
10009;SDS011;5044;48.652;9.250;2023-03-31T02:10:48;5.90;;;1.40;;
10009;SDS011;5044;48.652;9.250;2023-03-31T02:13:16;4.07;;;1.70;;
10009;SDS011;5044;48.652;9.250;2023-03-31T02:15:46;6.60;;;2.03;;
10009;SDS011;5044;48.652;9.250;2023-03-31T02:18:22;10.50;;;1.38;;
10009;SDS011;5044;48.652;9.250;2023-03-31T02:20:55;5.53;;;2.40;;
10009;SDS011;5044;48.652;9.250;2023-03-31T02:23:25;5.22;;;1.40;;
10009;SDS011;5044;48.652;9.250;2023-03-31T02:25:58;2.70;;;0.97;;
10009;SDS011;5044;48.652;9.250;2023-03-31T02:28:28;3.53;;;1.25;;
10009;SDS011;5044;48.652;9.250;2023-03-31T02:31:00;5.18;;;1.50;;
10009;SDS011;5044;48.652;9.250;2023-03-31T02:33:33;2.88;;;1.30;;
10009;SDS011;5044;48.652;9.250;2023-03-31T02:36:00;5.43;;;1.40;;
10009;SDS011;5044;48.652;9.250;2023-03-31T02:38:28;4.82;;;1.20;;
10009;SDS011;5044;48.652;9.250;2023-03-31T02:40:59;3.25;;;1.50;;
10009;SDS011;5044;48.652;9.250;2023-03-31T02:43:26;3.28;;;1.30;;
10009;SDS011;5044;48.652;9.250;2023-03-31T02:45:53;2.58;;;1.50;;
10009;SDS011;5044;48.652;9.250;2023-03-31T02:48:20;3.03;;;1.20;;
10009;SDS011;5044;48.652;9.250;2023-03-31T02:53:59;5.72;;;1.35;;
10009;SDS011;5044;48.652;9.250;2023-03-31T02:56:49;3.65;;;1.27;;
10009;SDS011;5044;48.652;9.250;2023-03-31T02:59:32;7.18;;;1.55;;
10009;SDS011;5044;48.652;9.250;2023-03-31T03:02:07;5.57;;;2.20;;
10009;SDS011;5044;48.652;9.250;2023-03-31T03:04:48;4.85;;;1.38;;
10009;SDS011;5044;48.652;9.250;2023-03-31T03:07:44;5.00;;;1.50;;
10009;SDS011;5044;48.652;9.250;2023-03-31T03:10:16;2.78;;;1.42;;
10009;SDS011;5044;48.652;9.250;2023-03-31T03:12:51;7.68;;;2.03;;
10009;SDS011;5044;48.652;9.250;2023-03-31T03:15:24;2.92;;;1.20;;
10009;SDS011;5044;48.652;9.250;2023-03-31T03:17:55;5.07;;;1.50;;
10009;SDS011;5044;48.652;9.250;2023-03-31T03:20:23;3.55;;;1.40;;
10009;SDS011;5044;48.652;9.250;2023-03-31T03:22:50;5.07;;;1.52;;
10009;SDS011;5044;48.652;9.250;2023-03-31T03:25:17;1.77;;;1.15;;
10009;SDS011;5044;48.652;9.250;2023-03-31T03:27:44;2.20;;;1.33;;
10009;SDS011;5044;48.652;9.250;2023-03-31T03:30:13;2.47;;;1.20;;
10009;SDS011;5044;48.652;9.250;2023-03-31T03:32:40;7.82;;;1.58;;
10009;SDS011;5044;48.652;9.250;2023-03-31T03:35:08;4.63;;;1.48;;
10009;SDS011;5044;48.652;9.250;2023-03-31T03:37:35;2.00;;;1.00;;
10009;SDS011;5044;48.652;9.250;2023-03-31T03:40:03;4.20;;;1.27;;
10009;SDS011;5044;48.652;9.250;2023-03-31T03:42:31;6.60;;;1.10;;
10009;SDS011;5044;48.652;9.250;2023-03-31T03:44:58;3.35;;;1.05;;
10009;SDS011;5044;48.652;9.250;2023-03-31T03:47:27;5.50;;;1.52;;
10009;SDS011;5044;48.652;9.250;2023-03-31T03:49:53;3.55;;;1.48;;
10009;SDS011;5044;48.652;9.250;2023-03-31T03:52:20;5.25;;;1.15;;
10009;SDS011;5044;48.652;9.250;2023-03-31T03:54:47;3.00;;;1.67;;
10009;SDS011;5044;48.652;9.250;2023-03-31T03:57:14;6.13;;;1.70;;
10009;SDS011;5044;48.652;9.250;2023-03-31T03:59:41;3.05;;;1.23;;
10009;SDS011;5044;48.652;9.250;2023-03-31T04:02:08;5.53;;;1.30;;
10009;SDS011;5044;48.652;9.250;2023-03-31T04:04:36;7.80;;;1.77;;
10009;SDS011;5044;48.652;9.250;2023-03-31T04:07:03;3.42;;;1.35;;
10009;SDS011;5044;48.652;9.250;2023-03-31T04:09:30;3.85;;;1.20;;
10009;SDS011;5044;48.652;9.250;2023-03-31T04:11:57;3.00;;;1.35;;
10009;SDS011;5044;48.652;9.250;2023-03-31T04:14:24;3.13;;;1.30;;
10009;SDS011;5044;48.652;9.250;2023-03-31T04:16:51;4.05;;;1.45;;
10009;SDS011;5044;48.652;9.250;2023-03-31T04:19:20;5.72;;;1.25;;
10009;SDS011;5044;48.652;9.250;2023-03-31T04:21:51;1.90;;;1.17;;
10009;SDS011;5044;48.652;9.250;2023-03-31T04:24:26;3.72;;;1.33;;
10009;SDS011;5044;48.652;9.250;2023-03-31T04:26:57;5.15;;;1.48;;
10009;SDS011;5044;48.652;9.250;2023-03-31T04:29:25;5.13;;;1.88;;
10009;SDS011;5044;48.652;9.250;2023-03-31T04:31:52;6.35;;;2.53;;
10009;SDS011;5044;48.652;9.250;2023-03-31T04:34:23;8.45;;;2.75;;
10009;SDS011;5044;48.652;9.250;2023-03-31T04:37:00;5.85;;;2.20;;
10009;SDS011;5044;48.652;9.250;2023-03-31T04:39:27;3.92;;;1.83;;
10009;SDS011;5044;48.652;9.250;2023-03-31T04:41:56;5.30;;;2.28;;
10009;SDS011;5044;48.652;9.250;2023-03-31T04:44:23;8.52;;;2.90;;
10009;SDS011;5044;48.652;9.250;2023-03-31T04:46:51;10.60;;;3.85;;
10009;SDS011;5044;48.652;9.250;2023-03-31T04:49:18;7.47;;;2.67;;
10009;SDS011;5044;48.652;9.250;2023-03-31T04:51:45;6.80;;;2.90;;
10009;SDS011;5044;48.652;9.250;2023-03-31T04:54:13;8.25;;;2.83;;
10009;SDS011;5044;48.652;9.250;2023-03-31T04:56:40;4.07;;;2.05;;
10009;SDS011;5044;48.652;9.250;2023-03-31T04:59:07;7.63;;;3.35;;
10009;SDS011;5044;48.652;9.250;2023-03-31T05:01:35;5.88;;;2.50;;
10009;SDS011;5044;48.652;9.250;2023-03-31T05:04:02;6.05;;;2.58;;
10009;SDS011;5044;48.652;9.250;2023-03-31T05:06:29;8.88;;;2.28;;
10009;SDS011;5044;48.652;9.250;2023-03-31T05:08:56;4.43;;;2.00;;
10009;SDS011;5044;48.652;9.250;2023-03-31T05:11:24;4.63;;;2.55;;
10009;SDS011;5044;48.652;9.250;2023-03-31T05:13:52;5.03;;;2.30;;
10009;SDS011;5044;48.652;9.250;2023-03-31T05:16:19;5.13;;;3.25;;
10009;SDS011;5044;48.652;9.250;2023-03-31T05:18:46;6.97;;;2.33;;
10009;SDS011;5044;48.652;9.250;2023-03-31T05:21:14;6.50;;;2.90;;
10009;SDS011;5044;48.652;9.250;2023-03-31T05:23:43;7.03;;;2.55;;
10009;SDS011;5044;48.652;9.250;2023-03-31T05:26:10;6.93;;;1.85;;
10009;SDS011;5044;48.652;9.250;2023-03-31T05:28:39;3.33;;;2.00;;
10009;SDS011;5044;48.652;9.250;2023-03-31T05:31:07;2.95;;;1.58;;
10009;SDS011;5044;48.652;9.250;2023-03-31T05:33:35;5.50;;;2.67;;
10009;SDS011;5044;48.652;9.250;2023-03-31T05:36:05;3.33;;;1.85;;
10009;SDS011;5044;48.652;9.250;2023-03-31T05:38:33;7.90;;;2.83;;
10009;SDS011;5044;48.652;9.250;2023-03-31T05:41:00;3.70;;;2.10;;
10009;SDS011;5044;48.652;9.250;2023-03-31T05:43:27;6.75;;;1.92;;
10009;SDS011;5044;48.652;9.250;2023-03-31T05:45:56;3.47;;;2.30;;
10009;SDS011;5044;48.652;9.250;2023-03-31T05:48:23;5.63;;;2.50;;
10009;SDS011;5044;48.652;9.250;2023-03-31T05:50:49;6.93;;;3.30;;
10009;SDS011;5044;48.652;9.250;2023-03-31T05:53:16;5.05;;;2.03;;
10009;SDS011;5044;48.652;9.250;2023-03-31T05:55:43;5.88;;;2.35;;
10009;SDS011;5044;48.652;9.250;2023-03-31T05:58:10;3.65;;;2.00;;
10009;SDS011;5044;48.652;9.250;2023-03-31T06:00:37;6.78;;;2.15;;
10009;SDS011;5044;48.652;9.250;2023-03-31T06:03:06;8.07;;;2.40;;
10009;SDS011;5044;48.652;9.250;2023-03-31T06:05:33;4.45;;;2.50;;
10009;SDS011;5044;48.652;9.250;2023-03-31T06:08:00;5.13;;;2.05;;
10009;SDS011;5044;48.652;9.250;2023-03-31T06:10:27;7.40;;;2.47;;
10009;SDS011;5044;48.652;9.250;2023-03-31T06:12:54;5.90;;;2.10;;
10009;SDS011;5044;48.652;9.250;2023-03-31T06:15:21;5.22;;;2.35;;
10009;SDS011;5044;48.652;9.250;2023-03-31T06:17:48;4.82;;;2.40;;
10009;SDS011;5044;48.652;9.250;2023-03-31T06:20:16;3.97;;;2.15;;
10009;SDS011;5044;48.652;9.250;2023-03-31T06:22:43;5.90;;;2.42;;
10009;SDS011;5044;48.652;9.250;2023-03-31T06:25:10;6.88;;;3.72;;
10009;SDS011;5044;48.652;9.250;2023-03-31T06:27:37;4.50;;;2.70;;
10009;SDS011;5044;48.652;9.250;2023-03-31T06:30:04;4.20;;;2.20;;
10009;SDS011;5044;48.652;9.250;2023-03-31T06:32:31;9.68;;;2.90;;
10009;SDS011;5044;48.652;9.250;2023-03-31T06:34:58;14.57;;;4.90;;
10009;SDS011;5044;48.652;9.250;2023-03-31T06:37:27;11.88;;;3.90;;
10009;SDS011;5044;48.652;9.250;2023-03-31T06:39:54;9.02;;;3.72;;
10009;SDS011;5044;48.652;9.250;2023-03-31T06:42:21;6.72;;;3.22;;
10009;SDS011;5044;48.652;9.250;2023-03-31T06:44:48;8.50;;;3.60;;
10009;SDS011;5044;48.652;9.250;2023-03-31T06:47:14;6.65;;;3.53;;
10009;SDS011;5044;48.652;9.250;2023-03-31T06:49:41;8.77;;;3.80;;
10009;SDS011;5044;48.652;9.250;2023-03-31T06:52:08;13.02;;;4.97;;
10009;SDS011;5044;48.652;9.250;2023-03-31T06:54:37;9.93;;;3.85;;
10009;SDS011;5044;48.652;9.250;2023-03-31T06:57:04;8.00;;;3.60;;
10009;SDS011;5044;48.652;9.250;2023-03-31T06:59:30;7.22;;;3.35;;
10009;SDS011;5044;48.652;9.250;2023-03-31T07:01:57;6.00;;;3.47;;
10009;SDS011;5044;48.652;9.250;2023-03-31T07:04:25;9.50;;;3.40;;
10009;SDS011;5044;48.652;9.250;2023-03-31T07:06:52;7.03;;;3.50;;
10009;SDS011;5044;48.652;9.250;2023-03-31T07:09:18;8.82;;;2.95;;
10009;SDS011;5044;48.652;9.250;2023-03-31T07:11:49;8.50;;;2.75;;
10009;SDS011;5044;48.652;9.250;2023-03-31T07:14:16;7.47;;;2.92;;
10009;SDS011;5044;48.652;9.250;2023-03-31T07:16:43;7.32;;;2.70;;
10009;SDS011;5044;48.652;9.250;2023-03-31T07:19:10;5.97;;;2.50;;
10009;SDS011;5044;48.652;9.250;2023-03-31T07:21:37;3.97;;;1.83;;
10009;SDS011;5044;48.652;9.250;2023-03-31T07:24:04;3.95;;;2.08;;
10009;SDS011;5044;48.652;9.250;2023-03-31T07:26:31;3.33;;;1.33;;
10009;SDS011;5044;48.652;9.250;2023-03-31T07:29:00;3.55;;;1.40;;
10009;SDS011;5044;48.652;9.250;2023-03-31T07:31:27;2.55;;;1.05;;
10009;SDS011;5044;48.652;9.250;2023-03-31T07:33:54;6.22;;;1.13;;
10009;SDS011;5044;48.652;9.250;2023-03-31T07:36:21;4.40;;;1.30;;
10009;SDS011;5044;48.652;9.250;2023-03-31T07:38:48;3.67;;;0.80;;
10009;SDS011;5044;48.652;9.250;2023-03-31T07:41:16;1.40;;;0.80;;
10009;SDS011;5044;48.652;9.250;2023-03-31T07:43:44;1.10;;;0.80;;
10009;SDS011;5044;48.652;9.250;2023-03-31T07:46:14;1.50;;;0.82;;
10009;SDS011;5044;48.652;9.250;2023-03-31T07:48:43;2.28;;;1.05;;
10009;SDS011;5044;48.652;9.250;2023-03-31T07:51:11;1.95;;;1.05;;
10009;SDS011;5044;48.652;9.250;2023-03-31T07:53:38;1.33;;;0.80;;
10009;SDS011;5044;48.652;9.250;2023-03-31T07:56:05;1.17;;;0.60;;
10009;SDS011;5044;48.652;9.250;2023-03-31T07:58:32;1.40;;;0.80;;
10009;SDS011;5044;48.652;9.250;2023-03-31T08:00:59;1.80;;;1.15;;
10009;SDS011;5044;48.652;9.250;2023-03-31T08:03:28;2.28;;;1.00;;
10009;SDS011;5044;48.652;9.250;2023-03-31T08:05:55;2.97;;;0.90;;
10009;SDS011;5044;48.652;9.250;2023-03-31T08:08:22;8.55;;;1.42;;
10009;SDS011;5044;48.652;9.250;2023-03-31T08:10:50;2.55;;;1.42;;
10009;SDS011;5044;48.652;9.250;2023-03-31T08:13:17;5.22;;;1.40;;
10009;SDS011;5044;48.652;9.250;2023-03-31T08:15:44;3.22;;;1.35;;
10009;SDS011;5044;48.652;9.250;2023-03-31T08:18:11;2.95;;;1.38;;
10009;SDS011;5044;48.652;9.250;2023-03-31T08:20:39;3.75;;;1.77;;
10009;SDS011;5044;48.652;9.250;2023-03-31T08:23:06;2.80;;;1.25;;
10009;SDS011;5044;48.652;9.250;2023-03-31T08:25:35;2.45;;;0.90;;
10009;SDS011;5044;48.652;9.250;2023-03-31T08:28:02;3.30;;;1.00;;
10009;SDS011;5044;48.652;9.250;2023-03-31T08:30:31;0.98;;;0.85;;
10009;SDS011;5044;48.652;9.250;2023-03-31T08:32:59;1.00;;;0.70;;
10009;SDS011;5044;48.652;9.250;2023-03-31T08:35:25;1.65;;;0.75;;
10009;SDS011;5044;48.652;9.250;2023-03-31T08:37:54;1.42;;;0.80;;
10009;SDS011;5044;48.652;9.250;2023-03-31T08:40:21;1.27;;;0.77;;
10009;SDS011;5044;48.652;9.250;2023-03-31T08:42:51;1.00;;;0.63;;
10009;SDS011;5044;48.652;9.250;2023-03-31T08:45:22;0.40;;;0.40;;
10009;SDS011;5044;48.652;9.250;2023-03-31T08:47:53;2.90;;;0.60;;
10009;SDS011;5044;48.652;9.250;2023-03-31T08:50:24;0.98;;;0.70;;
10009;SDS011;5044;48.652;9.250;2023-03-31T08:52:55;1.13;;;0.52;;
10009;SDS011;5044;48.652;9.250;2023-03-31T08:55:30;1.10;;;0.63;;
10009;SDS011;5044;48.652;9.250;2023-03-31T08:58:02;1.25;;;0.45;;
10009;SDS011;5044;48.652;9.250;2023-03-31T09:00:36;0.50;;;0.35;;
10009;SDS011;5044;48.652;9.250;2023-03-31T09:03:10;1.10;;;0.50;;
10009;SDS011;5044;48.652;9.250;2023-03-31T09:05:44;2.35;;;0.43;;
10009;SDS011;5044;48.652;9.250;2023-03-31T09:08:20;1.17;;;0.52;;
10009;SDS011;5044;48.652;9.250;2023-03-31T09:10:58;2.38;;;1.00;;
10009;SDS011;5044;48.652;9.250;2023-03-31T09:16:31;2.28;;;0.50;;
10009;SDS011;5044;48.652;9.250;2023-03-31T09:19:02;2.00;;;0.77;;
10009;SDS011;5044;48.652;9.250;2023-03-31T09:21:38;4.93;;;0.90;;
10009;SDS011;5044;48.652;9.250;2023-03-31T09:24:11;2.72;;;0.60;;
10009;SDS011;5044;48.652;9.250;2023-03-31T09:26:44;0.73;;;0.52;;
10009;SDS011;5044;48.652;9.250;2023-03-31T09:29:14;1.80;;;0.68;;
10009;SDS011;5044;48.652;9.250;2023-03-31T09:31:45;3.00;;;0.65;;
10009;SDS011;5044;48.652;9.250;2023-03-31T09:34:13;5.18;;;0.77;;
10009;SDS011;5044;48.652;9.250;2023-03-31T09:36:42;1.83;;;0.50;;
10009;SDS011;5044;48.652;9.250;2023-03-31T09:39:13;5.55;;;0.70;;
10009;SDS011;5044;48.652;9.250;2023-03-31T09:41:41;1.33;;;0.50;;
10009;SDS011;5044;48.652;9.250;2023-03-31T09:46:53;2.92;;;0.70;;
10009;SDS011;5044;48.652;9.250;2023-03-31T09:49:22;2.15;;;0.60;;
10009;SDS011;5044;48.652;9.250;2023-03-31T09:51:57;2.30;;;0.65;;
10009;SDS011;5044;48.652;9.250;2023-03-31T09:54:30;3.40;;;0.73;;
10009;SDS011;5044;48.652;9.250;2023-03-31T09:57:02;3.17;;;1.17;;
10009;SDS011;5044;48.652;9.250;2023-03-31T09:59:37;4.00;;;1.08;;
10009;SDS011;5044;48.652;9.250;2023-03-31T10:02:15;5.78;;;0.80;;
10009;SDS011;5044;48.652;9.250;2023-03-31T10:04:50;3.63;;;0.70;;
10009;SDS011;5044;48.652;9.250;2023-03-31T10:07:19;3.25;;;0.47;;
10009;SDS011;5044;48.652;9.250;2023-03-31T10:09:49;2.23;;;1.17;;
10009;SDS011;5044;48.652;9.250;2023-03-31T10:12:18;2.40;;;0.68;;
10009;SDS011;5044;48.652;9.250;2023-03-31T10:14:49;5.03;;;0.90;;
10009;SDS011;5044;48.652;9.250;2023-03-31T10:17:17;4.88;;;0.98;;
10009;SDS011;5044;48.652;9.250;2023-03-31T10:19:46;3.95;;;1.00;;
10009;SDS011;5044;48.652;9.250;2023-03-31T10:22:15;3.72;;;1.00;;
10009;SDS011;5044;48.652;9.250;2023-03-31T10:24:53;3.35;;;1.60;;
10009;SDS011;5044;48.652;9.250;2023-03-31T10:27:30;3.78;;;1.25;;
10009;SDS011;5044;48.652;9.250;2023-03-31T10:29:58;5.20;;;0.95;;
10009;SDS011;5044;48.652;9.250;2023-03-31T10:32:28;3.97;;;0.90;;
10009;SDS011;5044;48.652;9.250;2023-03-31T10:34:56;6.18;;;1.00;;
10009;SDS011;5044;48.652;9.250;2023-03-31T10:37:29;7.20;;;1.13;;
10009;SDS011;5044;48.652;9.250;2023-03-31T10:39:59;4.13;;;0.77;;
10009;SDS011;5044;48.652;9.250;2023-03-31T10:42:29;5.20;;;0.50;;
10009;SDS011;5044;48.652;9.250;2023-03-31T10:45:09;3.97;;;0.88;;
10009;SDS011;5044;48.652;9.250;2023-03-31T10:47:38;6.15;;;1.00;;
10009;SDS011;5044;48.652;9.250;2023-03-31T10:50:11;7.68;;;1.48;;
10009;SDS011;5044;48.652;9.250;2023-03-31T10:52:42;5.05;;;1.00;;
10009;SDS011;5044;48.652;9.250;2023-03-31T10:55:12;9.68;;;1.58;;
10009;SDS011;5044;48.652;9.250;2023-03-31T10:57:48;4.13;;;1.10;;
10009;SDS011;5044;48.652;9.250;2023-03-31T11:00:24;2.63;;;0.60;;
10009;SDS011;5044;48.652;9.250;2023-03-31T11:03:00;8.02;;;0.90;;
10009;SDS011;5044;48.652;9.250;2023-03-31T11:05:44;7.43;;;1.63;;
10009;SDS011;5044;48.652;9.250;2023-03-31T11:08:19;7.20;;;0.98;;
10009;SDS011;5044;48.652;9.250;2023-03-31T11:10:59;2.90;;;0.63;;
10009;SDS011;5044;48.652;9.250;2023-03-31T11:13:37;3.90;;;0.90;;
10009;SDS011;5044;48.652;9.250;2023-03-31T11:16:13;4.80;;;1.27;;
10009;SDS011;5044;48.652;9.250;2023-03-31T11:18:56;3.17;;;0.85;;
10009;SDS011;5044;48.652;9.250;2023-03-31T11:21:34;2.97;;;1.17;;
10009;SDS011;5044;48.652;9.250;2023-03-31T11:24:16;3.22;;;1.20;;
10009;SDS011;5044;48.652;9.250;2023-03-31T11:26:55;3.03;;;0.75;;
10009;SDS011;5044;48.652;9.250;2023-03-31T11:29:32;4.03;;;0.80;;
10009;SDS011;5044;48.652;9.250;2023-03-31T11:32:13;0.82;;;0.30;;
10009;SDS011;5044;48.652;9.250;2023-03-31T11:34:54;2.03;;;0.65;;
10009;SDS011;5044;48.652;9.250;2023-03-31T11:37:44;1.70;;;0.73;;
10009;SDS011;5044;48.652;9.250;2023-03-31T11:40:29;2.25;;;0.75;;
10009;SDS011;5044;48.652;9.250;2023-03-31T11:43:06;1.65;;;0.40;;
10009;SDS011;5044;48.652;9.250;2023-03-31T11:45:43;4.55;;;0.35;;
10009;SDS011;5044;48.652;9.250;2023-03-31T11:48:16;2.55;;;0.45;;
10009;SDS011;5044;48.652;9.250;2023-03-31T11:50:48;1.17;;;0.40;;
10009;SDS011;5044;48.652;9.250;2023-03-31T11:53:17;0.20;;;0.20;;
10009;SDS011;5044;48.652;9.250;2023-03-31T11:55:47;0.95;;;0.22;;
10009;SDS011;5044;48.652;9.250;2023-03-31T11:58:19;1.13;;;0.30;;
10009;SDS011;5044;48.652;9.250;2023-03-31T12:00:50;0.20;;;0.20;;
10009;SDS011;5044;48.652;9.250;2023-03-31T12:03:21;0.82;;;0.30;;
10009;SDS011;5044;48.652;9.250;2023-03-31T12:06:02;0.95;;;0.20;;
10009;SDS011;5044;48.652;9.250;2023-03-31T12:08:37;0.68;;;0.20;;
10009;SDS011;5044;48.652;9.250;2023-03-31T12:11:08;2.45;;;0.50;;
10009;SDS011;5044;48.652;9.250;2023-03-31T12:13:42;0.73;;;0.40;;
10009;SDS011;5044;48.652;9.250;2023-03-31T12:16:16;0.75;;;0.30;;
10009;SDS011;5044;48.652;9.250;2023-03-31T12:18:49;0.13;;;0.13;;
10009;SDS011;5044;48.652;9.250;2023-03-31T12:21:26;1.85;;;0.35;;
10009;SDS011;5044;48.652;9.250;2023-03-31T12:23:54;1.38;;;0.30;;
10009;SDS011;5044;48.652;9.250;2023-03-31T12:26:27;0.68;;;0.30;;
10009;SDS011;5044;48.652;9.250;2023-03-31T12:29:04;5.10;;;0.30;;
10009;SDS011;5044;48.652;9.250;2023-03-31T12:31:41;0.70;;;0.25;;
10009;SDS011;5044;48.652;9.250;2023-03-31T12:34:11;0.20;;;0.20;;
10009;SDS011;5044;48.652;9.250;2023-03-31T12:36:44;0.32;;;0.22;;
10009;SDS011;5044;48.652;9.250;2023-03-31T12:39:23;0.40;;;0.22;;
10009;SDS011;5044;48.652;9.250;2023-03-31T12:42:03;1.95;;;0.30;;
10009;SDS011;5044;48.652;9.250;2023-03-31T12:44:51;0.68;;;0.40;;
10009;SDS011;5044;48.652;9.250;2023-03-31T12:51:25;1.65;;;0.30;;
10009;SDS011;5044;48.652;9.250;2023-03-31T12:54:34;3.03;;;0.40;;
10009;SDS011;5044;48.652;9.250;2023-03-31T12:57:41;1.88;;;0.30;;
10009;SDS011;5044;48.652;9.250;2023-03-31T13:03:55;2.28;;;0.43;;
10009;SDS011;5044;48.652;9.250;2023-03-31T13:07:04;1.15;;;0.40;;
10009;SDS011;5044;48.652;9.250;2023-03-31T13:13:11;4.75;;;0.70;;
10009;SDS011;5044;48.652;9.250;2023-03-31T13:16:10;5.00;;;0.80;;
10009;SDS011;5044;48.652;9.250;2023-03-31T13:19:03;2.15;;;0.50;;
10009;SDS011;5044;48.652;9.250;2023-03-31T13:21:52;0.88;;;0.57;;
10009;SDS011;5044;48.652;9.250;2023-03-31T13:25:01;6.35;;;1.38;;
10009;SDS011;5044;48.652;9.250;2023-03-31T13:27:56;4.80;;;0.80;;
10009;SDS011;5044;48.652;9.250;2023-03-31T13:30:57;4.00;;;0.73;;
10009;SDS011;5044;48.652;9.250;2023-03-31T13:33:38;2.22;;;0.75;;
10009;SDS011;5044;48.652;9.250;2023-03-31T13:36:23;3.30;;;0.63;;
10009;SDS011;5044;48.652;9.250;2023-03-31T13:39:46;3.30;;;0.90;;
10009;SDS011;5044;48.652;9.250;2023-03-31T13:42:52;4.38;;;0.80;;
10009;SDS011;5044;48.652;9.250;2023-03-31T13:45:47;2.90;;;0.80;;
10009;SDS011;5044;48.652;9.250;2023-03-31T13:51:49;0.98;;;0.43;;
10009;SDS011;5044;48.652;9.250;2023-03-31T13:54:29;2.22;;;0.30;;
10009;SDS011;5044;48.652;9.250;2023-03-31T13:57:26;1.70;;;0.50;;
10009;SDS011;5044;48.652;9.250;2023-03-31T14:06:28;1.77;;;0.20;;
10009;SDS011;5044;48.652;9.250;2023-03-31T14:09:11;1.77;;;0.22;;
10009;SDS011;5044;48.652;9.250;2023-03-31T14:11:52;0.98;;;0.25;;
10009;SDS011;5044;48.652;9.250;2023-03-31T14:14:23;0.70;;;0.70;;
10009;SDS011;5044;48.652;9.250;2023-03-31T14:16:57;1.02;;;0.30;;
10009;SDS011;5044;48.652;9.250;2023-03-31T14:22:58;0.70;;;0.30;;
10009;SDS011;5044;48.652;9.250;2023-03-31T14:25:53;1.80;;;0.50;;
10009;SDS011;5044;48.652;9.250;2023-03-31T14:31:48;0.32;;;0.20;;
10009;SDS011;5044;48.652;9.250;2023-03-31T14:34:41;0.75;;;0.20;;
10009;SDS011;5044;48.652;9.250;2023-03-31T14:37:21;0.22;;;0.10;;
10009;SDS011;5044;48.652;9.250;2023-03-31T14:40:02;0.50;;;0.20;;
10009;SDS011;5044;48.652;9.250;2023-03-31T14:42:45;1.23;;;0.20;;
10009;SDS011;5044;48.652;9.250;2023-03-31T14:45:35;1.40;;;0.20;;
10009;SDS011;5044;48.652;9.250;2023-03-31T14:48:34;1.98;;;0.38;;
10009;SDS011;5044;48.652;9.250;2023-03-31T14:51:57;2.05;;;0.63;;
10009;SDS011;5044;48.652;9.250;2023-03-31T14:54:27;0.77;;;0.40;;
10009;SDS011;5044;48.652;9.250;2023-03-31T15:03:30;0.47;;;0.20;;
10009;SDS011;5044;48.652;9.250;2023-03-31T15:31:06;1.13;;;0.38;;
10009;SDS011;5044;48.652;9.250;2023-03-31T15:37:24;1.13;;;0.40;;
10009;SDS011;5044;48.652;9.250;2023-03-31T15:39:57;1.35;;;0.60;;
10009;SDS011;5044;48.652;9.250;2023-03-31T15:42:33;1.00;;;0.22;;
10009;SDS011;5044;48.652;9.250;2023-03-31T15:48:52;5.72;;;1.05;;
10009;SDS011;5044;48.652;9.250;2023-03-31T15:54:55;2.35;;;0.40;;
10009;SDS011;5044;48.652;9.250;2023-03-31T15:57:39;1.60;;;0.50;;
10009;SDS011;5044;48.652;9.250;2023-03-31T16:00:39;1.88;;;0.80;;
10009;SDS011;5044;48.652;9.250;2023-03-31T16:03:22;1.83;;;0.50;;
10009;SDS011;5044;48.652;9.250;2023-03-31T16:09:46;1.50;;;0.30;;
10009;SDS011;5044;48.652;9.250;2023-03-31T16:12:48;6.53;;;0.60;;
10009;SDS011;5044;48.652;9.250;2023-03-31T16:15:31;1.13;;;0.40;;
10009;SDS011;5044;48.652;9.250;2023-03-31T16:18:35;2.92;;;0.40;;
10009;SDS011;5044;48.652;9.250;2023-03-31T16:32:12;4.15;;;0.57;;
10009;SDS011;5044;48.652;9.250;2023-03-31T16:35:03;3.30;;;0.75;;
10009;SDS011;5044;48.652;9.250;2023-03-31T16:41:15;2.38;;;0.55;;
10009;SDS011;5044;48.652;9.250;2023-03-31T16:44:26;1.48;;;0.43;;
10009;SDS011;5044;48.652;9.250;2023-03-31T16:47:15;4.38;;;1.15;;
10009;SDS011;5044;48.652;9.250;2023-03-31T16:49:59;5.30;;;0.57;;
10009;SDS011;5044;48.652;9.250;2023-03-31T16:52:43;1.42;;;0.47;;
10009;SDS011;5044;48.652;9.250;2023-03-31T16:58:43;0.60;;;0.40;;
10009;SDS011;5044;48.652;9.250;2023-03-31T17:01:41;3.55;;;1.00;;
10009;SDS011;5044;48.652;9.250;2023-03-31T17:04:25;6.03;;;0.98;;
10009;SDS011;5044;48.652;9.250;2023-03-31T17:06:54;4.15;;;0.90;;
10009;SDS011;5044;48.652;9.250;2023-03-31T17:10:02;1.05;;;0.60;;
10009;SDS011;5044;48.652;9.250;2023-03-31T17:13:02;2.22;;;0.90;;
10009;SDS011;5044;48.652;9.250;2023-03-31T17:15:49;1.58;;;0.60;;
10009;SDS011;5044;48.652;9.250;2023-03-31T17:18:36;1.38;;;0.70;;
10009;SDS011;5044;48.652;9.250;2023-03-31T17:21:24;2.45;;;0.70;;
10009;SDS011;5044;48.652;9.250;2023-03-31T17:24:27;0.93;;;0.55;;
10009;SDS011;5044;48.652;9.250;2023-03-31T17:27:11;2.70;;;1.00;;
10009;SDS011;5044;48.652;9.250;2023-03-31T17:29:52;8.65;;;3.70;;
10009;SDS011;5044;48.652;9.250;2023-03-31T17:32:23;4.25;;;0.80;;
10009;SDS011;5044;48.652;9.250;2023-03-31T17:34:53;2.67;;;1.53;;
10009;SDS011;5044;48.652;9.250;2023-03-31T17:37:34;3.22;;;1.30;;